METAR Data
IDs: Format: Raw Decoded Include TAF

Data at: 1811 UTC 16 Oct 2021

KT20 161755Z AUTO 02011G17KT 10SM CLR 22/06 A3033 RMK AO2 T02210059 10221 20130
KT20 161735Z AUTO 02011G18KT 7SM CLR 22/06 A3033 RMK AO2 T02180058
KT20 161715Z AUTO 02012G17KT 4SM HZ CLR 21/06 A3034 RMK AO2 T02130058
KT20 161655Z AUTO 03012G19KT 7SM CLR 22/06 A3034 RMK AO2 T02150059
KT20 161635Z AUTO 03013G18KT 4SM HZ CLR 21/06 A3035 RMK AO2 T02130063
KT20 161615Z AUTO 05015G20KT 3SM HZ CLR 20/05 A3035 RMK AO2 T02030054
KT20 161555Z AUTO 04015G22KT 3SM HZ CLR 20/06 A3035 RMK AO2 T02030062
KT20 161535Z AUTO 03012G16KT 2 1/2SM HZ CLR 20/07 A3035 RMK AO2 T01950070
KT20 161515Z AUTO 04013G19KT 3SM HZ CLR 19/07 A3035 RMK AO2 T01900072
KT20 161455Z AUTO 04009G16KT 3SM HZ CLR 18/08 A3034 RMK AO2 T01820079
KT20 161435Z AUTO 03010G19KT 4SM HZ CLR 17/08 A3034 RMK AO2 T01740084
KT20 161415Z AUTO 03009KT 10SM CLR 17/09 A3033 RMK AO2 T01670089
KT20 161355Z AUTO 02006KT 10SM CLR 16/09 A3033 RMK AO2 T01560094
KT20 161335Z AUTO 01006KT 10SM CLR 14/10 A3032 RMK AO2 T01430096
KT20 161315Z AUTO 01005KT 10SM CLR 13/09 A3031 RMK AO2 T01310092
KT20 161255Z AUTO 01004KT 10SM CLR 13/09 A3031 RMK AO2 T01300092
KT20 161235Z AUTO 36005KT 10SM CLR 13/09 A3030 RMK AO2 T01310092
KT20 161215Z AUTO 36004KT 10SM CLR 13/09 A3030 RMK AO2 T01340090
KT20 161155Z AUTO 01005KT 10SM CLR 14/09 A3029 RMK AO2 T01370088 10195 20137
KT20 161135Z AUTO 36005KT 10SM CLR 15/09 A3028 RMK AO2 T01460085
KT20 161115Z AUTO 01006KT 10SM CLR 15/09 A3027 RMK AO2 T01500085
KT20 161055Z AUTO 02005KT 10SM CLR 15/09 A3026 RMK AO2 T01510085
KT20 161035Z AUTO 02006KT 10SM CLR 15/09 A3025 RMK AO2 T01540085
KT20 161015Z AUTO 02005KT 10SM CLR 16/09 A3025 RMK AO2 T01560086
KT20 160955Z AUTO 02007KT 10SM CLR 16/09 A3024 RMK AO2 T01590089
KT20 160935Z AUTO 01007KT 10SM CLR 16/09 A3024 RMK AO2 T01600090
KT20 160915Z AUTO 02008KT 10SM CLR 16/09 A3023 RMK AO2 T01630091
KT20 160855Z AUTO 01007KT 10SM CLR 17/09 A3022 RMK AO2 T01660092
KT20 160835Z AUTO 01007G14KT 7SM CLR 17/09 A3022 RMK AO2 T01700093
KT20 160815Z AUTO 01009G15KT 10SM CLR 17/10 A3022 RMK AO2 T01730095
KT20 160755Z AUTO 7SM CLR 18/10 A3022 RMK AO2 T01750097
KT20 160735Z AUTO 10SM CLR 18/10 A3021 RMK AO2 T01800098
KT20 160715Z AUTO 7SM CLR 18/10 A3021 RMK AO2 T01830100
KT20 160655Z AUTO 5SM HZ CLR 19/10 A3020 RMK AO2 T01860100
KT20 160635Z AUTO 7SM CLR 19/10 A3019 RMK AO2 T01900100
KT20 160615Z AUTO 10SM CLR 19/10 A3019 RMK AO2 T01920101
KT20 160555Z AUTO 10SM SCT090 20/10 A3019 RMK AO2 T01950104 10251 20195 403290195
KT20 160535Z AUTO 01010G14KT 10SM SCT090 20/11 A3018 RMK AO2 T01960108
KT20 160515Z AUTO 01013G21KT 10SM CLR 20/11 A3018 RMK AO2 T02010111
KT20 160455Z AUTO 01010G17KT 10SM CLR 21/12 A3018 RMK AO2 T02050116
KT20 160435Z AUTO 01009G15KT 7SM CLR 21/12 A3017 RMK AO2 T02070122
KT20 160415Z AUTO 01011G17KT 7SM CLR 21/13 A3016 RMK AO2 T02100126
KT20 160355Z AUTO 01009G16KT 7SM CLR 21/13 A3015 RMK AO2 T02120132
KT20 160335Z AUTO 01013G17KT 7SM CLR 22/14 A3014 RMK AO2 T02150135
KT20 160315Z AUTO 01009G19KT 7SM CLR 22/14 A3013 RMK AO2 T02200142
KT20 160255Z AUTO 01011G20KT 7SM CLR 22/15 A3011 RMK AO2 T02240145
KT20 160235Z AUTO 01011G18KT 7SM CLR 23/15 A3010 RMK AO2 T02250151
KT20 160215Z AUTO 02013G17KT 10SM CLR 23/16 A3009 RMK AO2 T02270156
KT20 160155Z AUTO 02011G19KT 10SM CLR 23/16 A3007 RMK AO2 T02290160
KT20 160135Z AUTO 01010G16KT 10SM CLR 23/17 A3005 RMK AO2 T02310165
KT20 160115Z AUTO 02012G17KT 10SM CLR 24/17 A3004 RMK AO2 T02360165
KT20 160055Z AUTO 36009KT 10SM CLR 24/17 A3004 RMK AO2 T02410167
KT20 160035Z AUTO 36011G16KT 10SM CLR 25/17 A3004 RMK AO2 T02460167
KT20 160015Z AUTO 36012G18KT 10SM CLR 25/17 A3002 RMK AO2 T02480169
KT20 152355Z AUTO 02012G17KT 10SM CLR 25/17 A3001 RMK AO2 T02510173 10329 20251
KT20 152335Z AUTO 01011G19KT 10SM SCT100 25/18 A3000 RMK AO2 T02530177
KT20 152315Z AUTO 36011G17KT 10SM SCT100 26/18 A3000 RMK AO2 T02550181
KT20 152255Z AUTO 01013G18KT 10SM SCT050 SCT060 SCT080 26/19 A2998 RMK AO2 T02600187
KT20 152235Z AUTO 01011G16KT 10SM -DZ SCT046 BKN060 BKN070 26/21 A2997 RMK AO2 T02570207
KT20 152215Z AUTO 01012G20KT 10SM SCT045 BKN055 OVC070 27/21 A2997 RMK AO2 LTG DSNT SW T02670210
KT20 152155Z AUTO 36015G27KT 7SM BKN045 BKN055 BKN095 28/21 A2995 RMK AO2 T02810213
KT20 152135Z AUTO 35007KT 10SM SCT047 SCT055 SCT120 32/22 A2992 RMK AO2 T03150221
KT20 152115Z AUTO 02005KT 10SM SCT046 SCT120 33/22 A2991 RMK AO2 T03290224
KT20 152055Z AUTO 36004KT 10SM SCT046 SCT120 32/22 A2992 RMK AO2 LTG DSNT W T03240219
KT20 152035Z AUTO 34005KT 10SM CLR 33/22 A2992 RMK AO2 T03280219
KT20 152015Z AUTO 28005KT 10SM SCT040 SCT047 SCT060 33/22 A2992 RMK AO2 T03270224
KT20 151955Z AUTO 35003KT 10SM CLR 32/22 A2992 RMK AO2 T03210223
KT20 151935Z AUTO 36006KT 10SM SCT034 SCT039 SCT070 32/23 A2993 RMK AO2 T03210233
KT20 151915Z AUTO 35006KT 10SM SCT032 SCT039 SCT055 32/24 A2994 RMK AO2 T03170242
KT20 151855Z AUTO 32003KT 10SM SCT028 SCT034 31/24 A2995 RMK AO2 T03140242
KT20 151835Z AUTO 29004KT 10SM BKN026 BKN034 31/25 A2996 RMK AO2 T03130245
KT20 151815Z AUTO 32004KT 10SM SCT023 31/25 A2996 RMK AO2 T03060245
KT20 151755Z AUTO 30005KT 10SM BKN021 BKN060 30/25 A2997 RMK AO2 T03040251 10307 20221
KT20 151735Z AUTO 25005KT 10SM BKN021 BKN042 BKN050 30/25 A2998 RMK AO2 T03020251
KT20 151715Z AUTO 25003KT 10SM SCT017 BKN023 BKN042 29/25 A2998 RMK AO2 T02870248
KT20 151655Z AUTO 00000KT 10SM BKN011 BKN019 28/25 A2999 RMK AO2 T02800253
KT20 151635Z AUTO 00000KT 10SM BKN009 OVC013 27/26 A2999 RMK AO2 T02730255
KT20 151615Z AUTO 26003KT 10SM OVC007 27/25 A2999 RMK AO2 T02690254
KT20 151555Z AUTO 00000KT 7SM BKN005 OVC009 26/26 A2998 RMK AO2 T02610256
KT20 151535Z AUTO 27003KT 7SM BKN005 BKN011 26/26 A2998 RMK AO2 T02630262
KT20 151515Z AUTO 00000KT 5SM BR OVC005 25/25 A2998 RMK AO2 T02490249
KT20 151455Z AUTO 00000KT 5SM BR OVC005 25/25 A2997 RMK AO2 T02450245
KT20 151435Z AUTO 00000KT 7SM OVC005 24/24 A2997 RMK AO2 T02380238
KT20 151415Z AUTO 33003KT 7SM OVC005 24/24 A2996 RMK AO2 T02380238
KT20 151355Z AUTO 00000KT 7SM OVC005 24/24 A2994 RMK AO2 T02410241
KT20 151335Z AUTO 00000KT 7SM BKN007 OVC012 24/24 A2992 RMK AO2 T02380238
KT20 151315Z AUTO 00000KT 10SM SCT007 OVC012 23/23 A2992 RMK AO2 T02330233
KT20 151255Z AUTO 00000KT 7SM OVC007 23/23 A2991 RMK AO2 T02300230
KT20 151235Z AUTO 00000KT 10SM OVC009 23/23 A2991 RMK AO2 T02260226
KT20 151215Z AUTO 00000KT 10SM BKN009 BKN013 OVC022 22/22 A2990 RMK AO2 T02230223
KT20 151155Z AUTO 00000KT 10SM BKN007 BKN022 BKN041 23/23 A2990 RMK AO2 70006 T02250225 10226 20209
KT20 151135Z AUTO 00000KT 10SM SCT009 BKN022 BKN034 23/23 A2989 RMK AO2 T02250225
KT20 151115Z AUTO 00000KT 10SM BKN007 OVC011 23/23 A2988 RMK AO2 T02250225
KT20 151055Z AUTO 00000KT 10SM OVC009 22/22 A2988 RMK AO2 T02220222
KT20 151035Z AUTO 00000KT 10SM BKN011 BKN018 OVC031 22/22 A2987 RMK AO2 T02210221
KT20 151015Z AUTO 00000KT 10SM SCT016 BKN031 22/22 A2987 RMK AO2 T02200220
KT20 150955Z AUTO 00000KT 10SM BKN011 22/22 A2987 RMK AO2 T02200220
KT20 150935Z AUTO 00000KT 10SM BKN011 BKN033 22/22 A2987 RMK AO2 T02200220
KT20 150915Z AUTO 00000KT 10SM SCT031 22/22 A2987 RMK AO2 T02190219
KT20 150855Z AUTO 00000KT 10SM SCT014 SCT029 SCT047 22/22 A2987 RMK AO2 T02170217
KT20 150835Z AUTO 00000KT 10SM BKN045 22/22 A2987 RMK AO2 T02190219
KT20 150815Z AUTO 00000KT 7SM SCT045 22/22 A2987 RMK AO2 T02180218
KT20 150755Z AUTO 00000KT 7SM SCT045 22/22 A2987 RMK AO2 T02170217
KT20 150735Z AUTO 00000KT 7SM CLR 21/21 A2987 RMK AO2 T02130213
KT20 150715Z AUTO 00000KT 7SM CLR 21/21 A2987 RMK AO2 T02090209
KT20 150655Z AUTO 00000KT 7SM SCT017 22/22 A2987 RMK AO2 T02160216
KT20 150630Z AUTO 00000KT 7SM CLR 22/22 A2987 RMK AO2 T02150215
KT20 150615Z AUTO 00000KT 7SM CLR 21/21 A2987 RMK AO2 T02140214